sensor_id;sensor_type;location;lat;lon;timestamp;pressure;altitude;pressure_sealevel;temperature;humidity
71768;BME280;59604;52.138;5.446;2022-08-03T00:01:47;101664.78;;;20.67;74.35
71768;BME280;59604;52.138;5.446;2022-08-03T00:04:14;101657.81;;;20.66;74.77
71768;BME280;59604;52.138;5.446;2022-08-03T00:06:41;101659.91;;;20.64;74.71
71768;BME280;59604;52.138;5.446;2022-08-03T00:09:08;101657.34;;;20.57;75.11
71768;BME280;59604;52.138;5.446;2022-08-03T00:11:35;101663.41;;;20.53;75.34
71768;BME280;59604;52.138;5.446;2022-08-03T00:14:03;101654.78;;;20.50;74.94
71768;BME280;59604;52.138;5.446;2022-08-03T00:16:30;101656.66;;;20.50;75.34
71768;BME280;59604;52.138;5.446;2022-08-03T00:18:57;101664.09;;;20.48;75.54
71768;BME280;59604;52.138;5.446;2022-08-03T00:21:27;101659.41;;;20.43;75.47
71768;BME280;59604;52.138;5.446;2022-08-03T00:23:54;101657.22;;;20.40;75.72
71768;BME280;59604;52.138;5.446;2022-08-03T00:26:21;101653.16;;;20.38;76.00
71768;BME280;59604;52.138;5.446;2022-08-03T00:28:48;101661.41;;;20.36;75.69
71768;BME280;59604;52.138;5.446;2022-08-03T00:31:15;101647.56;;;20.27;76.20
71768;BME280;59604;52.138;5.446;2022-08-03T00:34:02;101657.09;;;20.23;76.13
71768;BME280;59604;52.138;5.446;2022-08-03T00:36:29;101661.03;;;20.21;76.24
71768;BME280;59604;52.138;5.446;2022-08-03T00:38:56;101649.41;;;20.15;76.15
71768;BME280;59604;52.138;5.446;2022-08-03T00:41:23;101649.88;;;20.12;76.46
71768;BME280;59604;52.138;5.446;2022-08-03T00:43:49;101646.16;;;20.13;76.23
71768;BME280;59604;52.138;5.446;2022-08-03T00:46:16;101647.75;;;20.02;77.07
71768;BME280;59604;52.138;5.446;2022-08-03T00:48:48;101650.94;;;19.99;77.13
71768;BME280;59604;52.138;5.446;2022-08-03T00:51:15;101650.94;;;19.99;77.21
71768;BME280;59604;52.138;5.446;2022-08-03T00:53:41;101650.94;;;19.99;77.30
71768;BME280;59604;52.138;5.446;2022-08-03T00:56:12;101645.44;;;19.94;77.57
71768;BME280;59604;52.138;5.446;2022-08-03T00:58:39;101646.34;;;19.88;77.44
71768;BME280;59604;52.138;5.446;2022-08-03T01:01:05;101641.78;;;19.77;77.83
71768;BME280;59604;52.138;5.446;2022-08-03T01:03:32;101638.41;;;19.70;78.30
71768;BME280;59604;52.138;5.446;2022-08-03T01:06:11;101638.41;;;19.70;78.16
71768;BME280;59604;52.138;5.446;2022-08-03T01:14:33;101639.09;;;19.65;78.20
71768;BME280;59604;52.138;5.446;2022-08-03T01:17:20;101643.06;;;19.63;78.15
71768;BME280;59604;52.138;5.446;2022-08-03T01:20:00;101641.38;;;19.62;78.23
71768;BME280;59604;52.138;5.446;2022-08-03T01:31:07;101636.13;;;19.55;78.28
71768;BME280;59604;52.138;5.446;2022-08-03T01:33:41;101633.78;;;19.47;78.70
71768;BME280;59604;52.138;5.446;2022-08-03T01:36:13;101632.03;;;19.41;79.12
71768;BME280;59604;52.138;5.446;2022-08-03T01:38:59;101632.69;;;19.36;79.29
71768;BME280;59604;52.138;5.446;2022-08-03T01:41:34;101637.78;;;19.26;79.52
71768;BME280;59604;52.138;5.446;2022-08-03T01:44:05;101637.19;;;19.24;79.86
71768;BME280;59604;52.138;5.446;2022-08-03T01:46:54;101636.38;;;19.23;80.13
71768;BME280;59604;52.138;5.446;2022-08-03T01:49:23;101630.66;;;19.20;80.23
71768;BME280;59604;52.138;5.446;2022-08-03T01:51:51;101626.00;;;19.15;80.44
71768;BME280;59604;52.138;5.446;2022-08-03T01:54:30;101621.09;;;19.12;80.44
71768;BME280;59604;52.138;5.446;2022-08-03T01:56:58;101618.00;;;19.15;80.64
71768;BME280;59604;52.138;5.446;2022-08-03T01:59:26;101615.69;;;19.19;79.65
71768;BME280;59604;52.138;5.446;2022-08-03T02:01:55;101611.97;;;19.20;80.02
71768;BME280;59604;52.138;5.446;2022-08-03T02:04:44;101619.25;;;19.13;80.61
71768;BME280;59604;52.138;5.446;2022-08-03T02:07:14;101626.97;;;19.02;80.95
71768;BME280;59604;52.138;5.446;2022-08-03T02:09:43;101625.22;;;18.96;81.14
71768;BME280;59604;52.138;5.446;2022-08-03T02:12:12;101625.06;;;18.91;81.19
71768;BME280;59604;52.138;5.446;2022-08-03T02:14:42;101614.16;;;18.93;81.45
71768;BME280;59604;52.138;5.446;2022-08-03T02:17:11;101625.28;;;18.90;81.27
71768;BME280;59604;52.138;5.446;2022-08-03T02:19:38;101621.56;;;18.91;81.72
71768;BME280;59604;52.138;5.446;2022-08-03T02:22:07;101624.25;;;18.91;80.65
71768;BME280;59604;52.138;5.446;2022-08-03T02:24:34;101627.34;;;18.88;81.52
71768;BME280;59604;52.138;5.446;2022-08-03T02:27:03;101623.06;;;18.87;81.56
71768;BME280;59604;52.138;5.446;2022-08-03T02:29:32;101622.81;;;18.88;81.82
71768;BME280;59604;52.138;5.446;2022-08-03T02:32:08;101622.38;;;18.91;81.87
71768;BME280;59604;52.138;5.446;2022-08-03T02:34:36;101614.97;;;18.93;81.46
71768;BME280;59604;52.138;5.446;2022-08-03T02:37:06;101609.66;;;18.93;82.01
71768;BME280;59604;52.138;5.446;2022-08-03T02:39:34;101603.50;;;18.93;81.81
71768;BME280;59604;52.138;5.446;2022-08-03T02:42:02;101606.28;;;18.98;81.91
71768;BME280;59604;52.138;5.446;2022-08-03T02:44:32;101602.38;;;19.00;81.96
71768;BME280;59604;52.138;5.446;2022-08-03T02:47:04;101605.59;;;19.02;81.62
71768;BME280;59604;52.138;5.446;2022-08-03T02:49:33;101597.84;;;19.01;81.61
71768;BME280;59604;52.138;5.446;2022-08-03T02:52:22;101600.50;;;19.01;81.58
71768;BME280;59604;52.138;5.446;2022-08-03T02:54:52;101595.16;;;19.01;81.26
71768;BME280;59604;52.138;5.446;2022-08-03T02:57:20;101594.13;;;19.02;81.56
71768;BME280;59604;52.138;5.446;2022-08-03T02:59:49;101591.69;;;19.00;81.72
71768;BME280;59604;52.138;5.446;2022-08-03T03:02:17;101587.59;;;18.98;81.75
71768;BME280;59604;52.138;5.446;2022-08-03T03:04:45;101588.03;;;18.95;81.42
71768;BME280;59604;52.138;5.446;2022-08-03T03:07:33;101591.59;;;18.89;81.95
71768;BME280;59604;52.138;5.446;2022-08-03T03:10:19;101592.53;;;18.82;81.81
71768;BME280;59604;52.138;5.446;2022-08-03T03:12:49;101592.28;;;18.84;81.40
71768;BME280;59604;52.138;5.446;2022-08-03T03:15:16;101596.00;;;18.83;81.51
71768;BME280;59604;52.138;5.446;2022-08-03T03:17:44;101595.19;;;18.82;81.12
71768;BME280;59604;52.138;5.446;2022-08-03T03:20:13;101593.56;;;18.81;81.77
71768;BME280;59604;52.138;5.446;2022-08-03T03:22:57;101589.47;;;18.79;81.68
71768;BME280;59604;52.138;5.446;2022-08-03T03:25:24;101588.31;;;18.75;81.86
71768;BME280;59604;52.138;5.446;2022-08-03T03:27:51;101587.69;;;18.73;81.43
71768;BME280;59604;52.138;5.446;2022-08-03T03:30:18;101591.41;;;18.72;81.77
71768;BME280;59604;52.138;5.446;2022-08-03T03:32:44;101584.63;;;18.69;82.20
71768;BME280;59604;52.138;5.446;2022-08-03T03:35:13;101592.63;;;18.69;82.08
71768;BME280;59604;52.138;5.446;2022-08-03T03:37:40;101585.69;;;18.68;82.20
71768;BME280;59604;52.138;5.446;2022-08-03T03:40:07;101586.47;;;18.69;81.61
71768;BME280;59604;52.138;5.446;2022-08-03T03:42:34;101583.44;;;18.65;82.25
71768;BME280;59604;52.138;5.446;2022-08-03T03:45:04;101587.97;;;18.65;82.25
71768;BME280;59604;52.138;5.446;2022-08-03T03:47:33;101593.75;;;18.62;82.41
71768;BME280;59604;52.138;5.446;2022-08-03T03:50:04;101589.66;;;18.59;82.60
71768;BME280;59604;52.138;5.446;2022-08-03T03:52:31;101586.19;;;18.58;82.64
71768;BME280;59604;52.138;5.446;2022-08-03T03:54:58;101587.22;;;18.57;82.14
71768;BME280;59604;52.138;5.446;2022-08-03T03:57:27;101590.50;;;18.59;82.66
71768;BME280;59604;52.138;5.446;2022-08-03T03:59:54;101587.84;;;18.59;82.64
71768;BME280;59604;52.138;5.446;2022-08-03T04:02:21;101592.13;;;18.61;82.52
71768;BME280;59604;52.138;5.446;2022-08-03T04:04:48;101588.84;;;18.58;82.52
71768;BME280;59604;52.138;5.446;2022-08-03T04:07:41;101587.84;;;18.59;82.53
71768;BME280;59604;52.138;5.446;2022-08-03T04:10:32;101587.59;;;18.61;82.66
71768;BME280;59604;52.138;5.446;2022-08-03T04:13:20;101588.03;;;18.58;82.28
71768;BME280;59604;52.138;5.446;2022-08-03T04:15:47;101593.75;;;18.62;82.75
71768;BME280;59604;52.138;5.446;2022-08-03T04:18:15;101594.56;;;18.62;81.84
71768;BME280;59604;52.138;5.446;2022-08-03T04:20:45;101594.56;;;18.62;82.56
71768;BME280;59604;52.138;5.446;2022-08-03T04:23:15;101592.94;;;18.61;82.50
71768;BME280;59604;52.138;5.446;2022-08-03T04:25:44;101594.13;;;18.65;82.26
71768;BME280;59604;52.138;5.446;2022-08-03T04:28:12;101595.16;;;18.64;82.50
71768;BME280;59604;52.138;5.446;2022-08-03T04:30:58;101593.06;;;18.66;82.68
71768;BME280;59604;52.138;5.446;2022-08-03T04:33:28;101599.84;;;18.69;82.01
71768;BME280;59604;52.138;5.446;2022-08-03T04:35:57;101600.47;;;18.71;82.24
71768;BME280;59604;52.138;5.446;2022-08-03T04:38:30;101594.25;;;18.70;82.44
71768;BME280;59604;52.138;5.446;2022-08-03T04:40:58;101594.91;;;18.72;81.40
71768;BME280;59604;52.138;5.446;2022-08-03T04:43:26;101599.78;;;18.75;82.32
71768;BME280;59604;52.138;5.446;2022-08-03T04:45:55;101597.13;;;18.75;81.84
71768;BME280;59604;52.138;5.446;2022-08-03T04:48:22;101597.69;;;18.77;82.11
71768;BME280;59604;52.138;5.446;2022-08-03T04:50:50;101603.88;;;18.78;82.21
71768;BME280;59604;52.138;5.446;2022-08-03T04:53:17;101606.31;;;18.79;82.28
71768;BME280;59604;52.138;5.446;2022-08-03T04:55:45;101604.00;;;18.83;82.04
71768;BME280;59604;52.138;5.446;2022-08-03T04:58:12;101607.03;;;18.87;81.73
71768;BME280;59604;52.138;5.446;2022-08-03T05:00:38;101614.38;;;18.91;81.25
71768;BME280;59604;52.138;5.446;2022-08-03T05:03:05;101615.19;;;18.92;81.29
71768;BME280;59604;52.138;5.446;2022-08-03T05:05:53;101619.50;;;18.93;81.98
71768;BME280;59604;52.138;5.446;2022-08-03T05:08:36;101616.00;;;18.92;81.84
71768;BME280;59604;52.138;5.446;2022-08-03T05:11:15;101620.09;;;18.95;80.91
71768;BME280;59604;52.138;5.446;2022-08-03T05:13:42;101620.09;;;18.95;81.42
71768;BME280;59604;52.138;5.446;2022-08-03T05:16:08;101623.56;;;18.95;81.46
71768;BME280;59604;52.138;5.446;2022-08-03T05:18:35;101626.47;;;18.94;81.19
71768;BME280;59604;52.138;5.446;2022-08-03T05:21:02;101625.41;;;18.95;81.82
71768;BME280;59604;52.138;5.446;2022-08-03T05:23:29;101628.91;;;18.95;81.60
71768;BME280;59604;52.138;5.446;2022-08-03T05:25:56;101632.84;;;18.93;81.88
71768;BME280;59604;52.138;5.446;2022-08-03T05:28:22;101628.53;;;18.92;82.07
71768;BME280;59604;52.138;5.446;2022-08-03T05:30:49;101627.16;;;18.89;81.58
71768;BME280;59604;52.138;5.446;2022-08-03T05:33:16;101631.44;;;18.90;81.67
71768;BME280;59604;52.138;5.446;2022-08-03T05:35:42;101631.22;;;18.92;81.21
71768;BME280;59604;52.138;5.446;2022-08-03T05:38:28;101632.63;;;18.94;81.63
71768;BME280;59604;52.138;5.446;2022-08-03T05:41:03;101635.06;;;18.96;81.90
71768;BME280;59604;52.138;5.446;2022-08-03T05:43:52;101634.63;;;18.99;80.77
71768;BME280;59604;52.138;5.446;2022-08-03T05:46:21;101635.94;;;19.08;81.43
71768;BME280;59604;52.138;5.446;2022-08-03T05:48:48;101631.34;;;19.15;81.50
71768;BME280;59604;52.138;5.446;2022-08-03T05:51:14;101633.34;;;19.20;81.33
71768;BME280;59604;52.138;5.446;2022-08-03T05:53:41;101630.22;;;19.23;80.85
71768;BME280;59604;52.138;5.446;2022-08-03T05:56:09;101638.34;;;19.28;80.50
71768;BME280;59604;52.138;5.446;2022-08-03T05:58:45;101630.25;;;19.35;80.98
71768;BME280;59604;52.138;5.446;2022-08-03T06:01:14;101633.28;;;19.38;80.97
71768;BME280;59604;52.138;5.446;2022-08-03T06:03:40;101631.56;;;19.44;81.01
71768;BME280;59604;52.138;5.446;2022-08-03T06:06:10;101629.59;;;19.51;80.76
71768;BME280;59604;52.138;5.446;2022-08-03T06:08:38;101627.44;;;19.60;80.08
71768;BME280;59604;52.138;5.446;2022-08-03T06:11:04;101631.66;;;19.67;79.39
71768;BME280;59604;52.138;5.446;2022-08-03T06:13:31;101624.38;;;19.74;79.32
71768;BME280;59604;52.138;5.446;2022-08-03T06:15:58;101631.59;;;19.86;79.36
71768;BME280;59604;52.138;5.446;2022-08-03T06:18:24;101626.84;;;19.99;78.95
71768;BME280;59604;52.138;5.446;2022-08-03T06:20:51;101630.34;;;20.12;77.67
71768;BME280;59604;52.138;5.446;2022-08-03T06:23:18;101631.59;;;20.21;78.44
71768;BME280;59604;52.138;5.446;2022-08-03T06:25:46;101637.09;;;20.26;77.82
71768;BME280;59604;52.138;5.446;2022-08-03T06:28:13;101635.22;;;20.38;76.75
71768;BME280;59604;52.138;5.446;2022-08-03T06:30:59;101637.78;;;20.45;77.83
71768;BME280;59604;52.138;5.446;2022-08-03T06:33:26;101635.59;;;20.54;77.43
71768;BME280;59604;52.138;5.446;2022-08-03T06:36:14;101635.22;;;20.62;76.85
71768;BME280;59604;52.138;5.446;2022-08-03T06:38:40;101633.81;;;20.71;76.43
71768;BME280;59604;52.138;5.446;2022-08-03T06:41:07;101634.72;;;20.77;76.82
71768;BME280;59604;52.138;5.446;2022-08-03T06:43:33;101639.50;;;20.86;76.03
71768;BME280;59604;52.138;5.446;2022-08-03T06:46:03;101633.41;;;20.91;75.57
71768;BME280;59604;52.138;5.446;2022-08-03T06:48:33;101633.53;;;20.96;75.19
71768;BME280;59604;52.138;5.446;2022-08-03T06:50:59;101642.13;;;20.98;75.71
71768;BME280;59604;52.138;5.446;2022-08-03T06:53:26;101629.75;;;21.09;75.28
71768;BME280;59604;52.138;5.446;2022-08-03T06:55:52;101639.06;;;21.18;75.01
71768;BME280;59604;52.138;5.446;2022-08-03T06:58:20;101635.91;;;21.21;74.93
71768;BME280;59604;52.138;5.446;2022-08-03T07:00:47;101638.00;;;21.19;75.20
71768;BME280;59604;52.138;5.446;2022-08-03T07:03:13;101634.97;;;21.15;74.24
71768;BME280;59604;52.138;5.446;2022-08-03T07:05:41;101646.16;;;21.12;75.09
71768;BME280;59604;52.138;5.446;2022-08-03T07:08:08;101641.66;;;21.01;75.05
71768;BME280;59604;52.138;5.446;2022-08-03T07:10:35;101646.81;;;21.03;75.59
71768;BME280;59604;52.138;5.446;2022-08-03T07:13:02;101647.69;;;21.08;74.78
71768;BME280;59604;52.138;5.446;2022-08-03T07:15:29;101648.97;;;21.06;74.43
71768;BME280;59604;52.138;5.446;2022-08-03T07:18:16;101656.88;;;21.12;74.95
71768;BME280;59604;52.138;5.446;2022-08-03T07:20:54;101661.25;;;21.30;74.88
71768;BME280;59604;52.138;5.446;2022-08-03T07:23:21;101658.06;;;21.45;74.19
71768;BME280;59604;52.138;5.446;2022-08-03T07:25:47;101668.19;;;21.55;74.10
71768;BME280;59604;52.138;5.446;2022-08-03T07:28:14;101663.84;;;21.54;73.67
71768;BME280;59604;52.138;5.446;2022-08-03T07:30:41;101668.88;;;21.50;73.31
71768;BME280;59604;52.138;5.446;2022-08-03T07:33:07;101672.81;;;21.59;72.86
71768;BME280;59604;52.138;5.446;2022-08-03T07:35:34;101672.66;;;21.66;73.04
71768;BME280;59604;52.138;5.446;2022-08-03T07:38:00;101676.56;;;21.75;72.29
71768;BME280;59604;52.138;5.446;2022-08-03T07:40:27;101668.38;;;21.82;72.58
71768;BME280;59604;52.138;5.446;2022-08-03T07:42:57;101667.91;;;21.85;72.35
71768;BME280;59604;52.138;5.446;2022-08-03T07:45:24;101670.44;;;21.91;72.61
71768;BME280;59604;52.138;5.446;2022-08-03T07:47:51;101667.34;;;22.00;72.88
71768;BME280;59604;52.138;5.446;2022-08-03T07:50:19;101665.94;;;21.97;72.50
71768;BME280;59604;52.138;5.446;2022-08-03T07:52:46;101662.19;;;21.98;73.10
71768;BME280;59604;52.138;5.446;2022-08-03T07:55:13;101667.66;;;22.03;72.09
71768;BME280;59604;52.138;5.446;2022-08-03T07:57:40;101665.84;;;22.09;71.53
71768;BME280;59604;52.138;5.446;2022-08-03T08:00:15;101658.25;;;22.17;71.78
71768;BME280;59604;52.138;5.446;2022-08-03T08:02:44;101658.31;;;22.23;71.53
71768;BME280;59604;52.138;5.446;2022-08-03T08:05:11;101663.22;;;22.26;71.60
71768;BME280;59604;52.138;5.446;2022-08-03T08:07:38;101658.16;;;22.29;71.51
71768;BME280;59604;52.138;5.446;2022-08-03T08:10:06;101666.38;;;22.39;71.17
71768;BME280;59604;52.138;5.446;2022-08-03T08:12:33;101655.69;;;22.45;69.76
71768;BME280;59604;52.138;5.446;2022-08-03T08:15:00;101664.66;;;22.50;70.26
71768;BME280;59604;52.138;5.446;2022-08-03T08:17:27;101660.41;;;22.54;69.25
71768;BME280;59604;52.138;5.446;2022-08-03T08:19:54;101659.97;;;22.62;69.73
71768;BME280;59604;52.138;5.446;2022-08-03T08:22:20;101656.53;;;22.67;69.71
71768;BME280;59604;52.138;5.446;2022-08-03T08:24:57;101659.47;;;22.65;69.81
71768;BME280;59604;52.138;5.446;2022-08-03T08:27:23;101656.31;;;22.69;69.54
71768;BME280;59604;52.138;5.446;2022-08-03T08:29:50;101660.44;;;22.76;69.54
71768;BME280;59604;52.138;5.446;2022-08-03T08:32:21;101672.84;;;22.82;68.77
71768;BME280;59604;52.138;5.446;2022-08-03T08:34:48;101660.31;;;22.88;67.77
71768;BME280;59604;52.138;5.446;2022-08-03T08:37:14;101666.03;;;22.92;68.86
71768;BME280;59604;52.138;5.446;2022-08-03T08:39:41;101675.78;;;22.98;68.44
71768;BME280;59604;52.138;5.446;2022-08-03T08:42:08;101670.69;;;23.01;69.30
71768;BME280;59604;52.138;5.446;2022-08-03T08:44:35;101671.88;;;23.10;67.89
71768;BME280;59604;52.138;5.446;2022-08-03T08:47:02;101663.31;;;23.13;67.89
71768;BME280;59604;52.138;5.446;2022-08-03T08:49:31;101672.56;;;23.23;68.29
71768;BME280;59604;52.138;5.446;2022-08-03T08:51:59;101672.13;;;23.31;67.52
71768;BME280;59604;52.138;5.446;2022-08-03T08:54:28;101674.09;;;23.41;67.20
71768;BME280;59604;52.138;5.446;2022-08-03T08:57:01;101681.16;;;23.47;65.90
71768;BME280;59604;52.138;5.446;2022-08-03T08:59:31;101672.81;;;23.48;66.51
71768;BME280;59604;52.138;5.446;2022-08-03T09:02:14;101675.63;;;23.58;66.65
71768;BME280;59604;52.138;5.446;2022-08-03T09:04:41;101678.91;;;23.66;66.56
71768;BME280;59604;52.138;5.446;2022-08-03T09:07:08;101679.28;;;23.74;65.18
71768;BME280;59604;52.138;5.446;2022-08-03T09:09:54;101675.63;;;23.85;65.53
71768;BME280;59604;52.138;5.446;2022-08-03T09:12:41;101664.72;;;23.97;65.28
71768;BME280;59604;52.138;5.446;2022-08-03T09:17:43;101663.44;;;24.10;63.73
71768;BME280;59604;52.138;5.446;2022-08-03T09:20:16;101664.84;;;24.18;64.02
71768;BME280;59604;52.138;5.446;2022-08-03T09:22:53;101665.66;;;24.18;62.75
71768;BME280;59604;52.138;5.446;2022-08-03T09:25:31;101674.00;;;24.17;62.83
71768;BME280;59604;52.138;5.446;2022-08-03T09:28:12;101676.72;;;24.22;63.27
71768;BME280;59604;52.138;5.446;2022-08-03T09:30:59;101674.06;;;24.27;62.89
71768;BME280;59604;52.138;5.446;2022-08-03T09:33:25;101668.13;;;24.30;62.30
71768;BME280;59604;52.138;5.446;2022-08-03T09:36:01;101671.97;;;24.34;61.99
71768;BME280;59604;52.138;5.446;2022-08-03T09:38:28;101667.50;;;24.50;62.18
71768;BME280;59604;52.138;5.446;2022-08-03T09:40:55;101661.38;;;24.65;62.10
71768;BME280;59604;52.138;5.446;2022-08-03T09:43:26;101664.66;;;24.72;61.28
71768;BME280;59604;52.138;5.446;2022-08-03T09:46:02;101662.53;;;24.84;61.38
71768;BME280;59604;52.138;5.446;2022-08-03T09:48:30;101661.53;;;25.00;60.34
71768;BME280;59604;52.138;5.446;2022-08-03T09:50:59;101673.19;;;25.11;60.71
71768;BME280;59604;52.138;5.446;2022-08-03T09:53:46;101676.19;;;25.25;59.58
71768;BME280;59604;52.138;5.446;2022-08-03T09:56:37;101661.94;;;25.35;60.00
71768;BME280;59604;52.138;5.446;2022-08-03T09:59:04;101664.66;;;25.50;58.89
71768;BME280;59604;52.138;5.446;2022-08-03T10:01:34;101667.63;;;25.59;58.95
71768;BME280;59604;52.138;5.446;2022-08-03T10:04:01;101666.56;;;25.65;58.15
71768;BME280;59604;52.138;5.446;2022-08-03T10:06:30;101669.31;;;25.85;58.37
71768;BME280;59604;52.138;5.446;2022-08-03T10:09:15;101673.59;;;26.01;57.64
71768;BME280;59604;52.138;5.446;2022-08-03T10:11:43;101673.59;;;26.07;57.17
71768;BME280;59604;52.138;5.446;2022-08-03T10:14:11;101673.59;;;26.12;56.82
71768;BME280;59604;52.138;5.446;2022-08-03T10:16:45;101674.41;;;26.17;56.52
71768;BME280;59604;52.138;5.446;2022-08-03T10:19:12;101676.28;;;26.27;56.10
71768;BME280;59604;52.138;5.446;2022-08-03T10:21:53;101673.84;;;26.31;55.90
71768;BME280;59604;52.138;5.446;2022-08-03T10:24:24;101671.69;;;26.48;56.06
71768;BME280;59604;52.138;5.446;2022-08-03T10:26:57;101667.28;;;26.67;55.18
71768;BME280;59604;52.138;5.446;2022-08-03T10:29:27;101666.16;;;26.79;53.43
71768;BME280;59604;52.138;5.446;2022-08-03T10:31:57;101667.78;;;26.85;53.90
71768;BME280;59604;52.138;5.446;2022-08-03T10:34:32;101664.44;;;26.98;54.03
71768;BME280;59604;52.138;5.446;2022-08-03T10:37:00;101668.19;;;27.12;53.55
71768;BME280;59604;52.138;5.446;2022-08-03T10:39:30;101667.03;;;27.29;52.54
71768;BME280;59604;52.138;5.446;2022-08-03T10:41:57;101662.34;;;27.39;52.82
71768;BME280;59604;52.138;5.446;2022-08-03T10:44:32;101653.91;;;27.51;51.23
71768;BME280;59604;52.138;5.446;2022-08-03T10:46:59;101654.66;;;27.57;52.00
71768;BME280;59604;52.138;5.446;2022-08-03T10:49:27;101662.75;;;27.62;50.66
71768;BME280;59604;52.138;5.446;2022-08-03T10:52:02;101649.97;;;27.67;50.40
71768;BME280;59604;52.138;5.446;2022-08-03T10:54:40;101647.78;;;27.75;50.72
71768;BME280;59604;52.138;5.446;2022-08-03T10:57:51;101642.72;;;27.97;50.77
71768;BME280;59604;52.138;5.446;2022-08-03T11:00:26;101641.81;;;28.07;50.60
71768;BME280;59604;52.138;5.446;2022-08-03T11:03:11;101651.94;;;28.20;50.37
71768;BME280;59604;52.138;5.446;2022-08-03T11:05:45;101650.28;;;28.24;47.07
71768;BME280;59604;52.138;5.446;2022-08-03T11:14:08;101640.34;;;28.68;47.06
71768;BME280;59604;52.138;5.446;2022-08-03T11:16:40;101641.09;;;28.73;45.56
71768;BME280;59604;52.138;5.446;2022-08-03T11:19:09;101649.72;;;28.75;46.10
71768;BME280;59604;52.138;5.446;2022-08-03T11:32:56;101643.94;;;29.06;46.43
71768;BME280;59604;52.138;5.446;2022-08-03T11:35:31;101646.06;;;29.09;46.74
71768;BME280;59604;52.138;5.446;2022-08-03T11:48:35;101642.13;;;29.53;42.88
71768;BME280;59604;52.138;5.446;2022-08-03T11:51:07;101646.97;;;29.56;41.93
71768;BME280;59604;52.138;5.446;2022-08-03T11:53:44;101643.34;;;29.66;44.00
71768;BME280;59604;52.138;5.446;2022-08-03T11:56:13;101646.16;;;29.74;43.88
71768;BME280;59604;52.138;5.446;2022-08-03T11:58:47;101644.00;;;29.90;42.21
71768;BME280;59604;52.138;5.446;2022-08-03T12:01:34;101642.91;;;29.91;42.54
71768;BME280;59604;52.138;5.446;2022-08-03T12:04:04;101631.66;;;29.98;42.15
71768;BME280;59604;52.138;5.446;2022-08-03T12:06:31;101649.97;;;30.06;42.18
71768;BME280;59604;52.138;5.446;2022-08-03T12:09:20;101648.16;;;30.15;40.15
71768;BME280;59604;52.138;5.446;2022-08-03T12:11:48;101644.59;;;30.20;40.68
71768;BME280;59604;52.138;5.446;2022-08-03T12:14:26;101645.75;;;30.14;41.06
71768;BME280;59604;52.138;5.446;2022-08-03T12:17:13;101652.09;;;30.23;40.93
71768;BME280;59604;52.138;5.446;2022-08-03T12:19:41;101646.28;;;30.29;40.52
71768;BME280;59604;52.138;5.446;2022-08-03T12:22:08;101635.22;;;30.40;39.93
71768;BME280;59604;52.138;5.446;2022-08-03T12:24:44;101643.56;;;30.29;39.36
71768;BME280;59604;52.138;5.446;2022-08-03T12:27:22;101642.97;;;30.32;39.90
71768;BME280;59604;52.138;5.446;2022-08-03T12:29:50;101641.66;;;30.44;39.33
71768;BME280;59604;52.138;5.446;2022-08-03T12:32:25;101634.31;;;30.58;39.25
71768;BME280;59604;52.138;5.446;2022-08-03T12:34:52;101630.66;;;30.63;40.46
71768;BME280;59604;52.138;5.446;2022-08-03T12:37:20;101626.22;;;30.67;40.20
71768;BME280;59604;52.138;5.446;2022-08-03T12:39:53;101636.50;;;30.70;40.54
71768;BME280;59604;52.138;5.446;2022-08-03T12:42:33;101644.59;;;30.75;37.76
71768;BME280;59604;52.138;5.446;2022-08-03T12:45:27;101645.47;;;30.84;38.73
71768;BME280;59604;52.138;5.446;2022-08-03T12:48:00;101639.50;;;30.96;36.70
71768;BME280;59604;52.138;5.446;2022-08-03T12:50:28;101636.16;;;30.99;38.74
71768;BME280;59604;52.138;5.446;2022-08-03T12:52:57;101651.09;;;31.01;37.39
71768;BME280;59604;52.138;5.446;2022-08-03T12:55:25;101638.84;;;31.13;38.73
71768;BME280;59604;52.138;5.446;2022-08-03T12:58:33;101638.81;;;31.26;37.76
71768;BME280;59604;52.138;5.446;2022-08-03T13:01:04;101635.41;;;31.21;38.20
71768;BME280;59604;52.138;5.446;2022-08-03T13:03:43;101639.41;;;31.37;38.41
71768;BME280;59604;52.138;5.446;2022-08-03T13:06:20;101641.72;;;31.30;38.07
71768;BME280;59604;52.138;5.446;2022-08-03T13:08:48;101626.81;;;31.27;39.26
71768;BME280;59604;52.138;5.446;2022-08-03T13:11:25;101639.63;;;31.27;39.36
71768;BME280;59604;52.138;5.446;2022-08-03T13:14:11;101623.91;;;31.24;38.31
71768;BME280;59604;52.138;5.446;2022-08-03T13:16:45;101632.25;;;31.27;38.45
71768;BME280;59604;52.138;5.446;2022-08-03T13:19:11;101625.47;;;31.39;38.73
71768;BME280;59604;52.138;5.446;2022-08-03T13:21:41;101630.00;;;31.43;39.58
71768;BME280;59604;52.138;5.446;2022-08-03T13:24:28;101629.75;;;31.54;38.68
71768;BME280;59604;52.138;5.446;2022-08-03T13:26:57;101628.00;;;31.58;39.38
71768;BME280;59604;52.138;5.446;2022-08-03T13:29:23;101639.47;;;31.46;39.13
71768;BME280;59604;52.138;5.446;2022-08-03T13:31:50;101634.44;;;31.39;39.22
71768;BME280;59604;52.138;5.446;2022-08-03T13:34:17;101630.31;;;31.42;39.64
71768;BME280;59604;52.138;5.446;2022-08-03T13:36:51;101628.88;;;31.67;38.66
71768;BME280;59604;52.138;5.446;2022-08-03T13:39:34;101624.31;;;31.85;38.40
71768;BME280;59604;52.138;5.446;2022-08-03T13:42:21;101626.00;;;31.94;40.05
71768;BME280;59604;52.138;5.446;2022-08-03T13:44:48;101625.84;;;31.99;38.89
71768;BME280;59604;52.138;5.446;2022-08-03T13:47:14;101636.75;;;31.99;38.23
71768;BME280;59604;52.138;5.446;2022-08-03T13:49:41;101628.38;;;31.87;38.18
71768;BME280;59604;52.138;5.446;2022-08-03T13:52:26;101638.06;;;31.80;38.27
71768;BME280;59604;52.138;5.446;2022-08-03T13:54:52;101628.22;;;31.92;39.28
71768;BME280;59604;52.138;5.446;2022-08-03T13:57:19;101629.88;;;32.02;39.49